sensor_id;sensor_type;location;lat;lon;timestamp;pressure;altitude;pressure_sealevel;temperature;humidity
44675;BME280;30388;52.038;-1.478;2023-05-25T00:01:22;66088.91;;;12.97;100.00
44675;BME280;30388;52.038;-1.478;2023-05-25T00:03:50;66168.05;;;13.74;100.00
44675;BME280;30388;52.038;-1.478;2023-05-25T00:06:18;66167.42;;;13.73;100.00
44675;BME280;30388;52.038;-1.478;2023-05-25T00:08:45;66138.51;;;13.59;100.00
44675;BME280;30388;52.038;-1.478;2023-05-25T00:11:13;66135.94;;;13.34;100.00
44675;BME280;30388;52.038;-1.478;2023-05-25T00:13:40;66132.96;;;13.52;100.00
44675;BME280;30388;52.038;-1.478;2023-05-25T00:16:07;66183.51;;;13.94;100.00
44675;BME280;30388;52.038;-1.478;2023-05-25T00:18:35;66200.72;;;13.93;100.00
44675;BME280;30388;52.038;-1.478;2023-05-25T00:21:02;66202.58;;;13.95;100.00
44675;BME280;30388;52.038;-1.478;2023-05-25T00:23:30;66165.71;;;13.70;100.00
44675;BME280;30388;52.038;-1.478;2023-05-25T00:25:58;66126.38;;;13.21;100.00
44675;BME280;30388;52.038;-1.478;2023-05-25T00:28:26;66121.39;;;13.15;100.00
44675;BME280;30388;52.038;-1.478;2023-05-25T00:30:54;66073.76;;;12.78;100.00
44675;BME280;30388;52.038;-1.478;2023-05-25T00:33:21;66092.15;;;12.78;100.00
44675;BME280;30388;52.038;-1.478;2023-05-25T00:35:49;66120.20;;;13.36;100.00
44675;BME280;30388;52.038;-1.478;2023-05-25T00:38:17;66054.71;;;13.01;100.00
44675;BME280;30388;52.038;-1.478;2023-05-25T00:40:44;65963.85;;;11.39;100.00
44675;BME280;30388;52.038;-1.478;2023-05-25T00:43:12;66010.28;;;12.23;100.00
44675;BME280;30388;52.038;-1.478;2023-05-25T00:45:39;66073.46;;;12.76;100.00
44675;BME280;30388;52.038;-1.478;2023-05-25T00:48:08;66056.57;;;12.56;100.00
44675;BME280;30388;52.038;-1.478;2023-05-25T00:50:38;66149.30;;;13.72;100.00
44675;BME280;30388;52.038;-1.478;2023-05-25T00:53:08;66096.74;;;12.84;100.00
44675;BME280;30388;52.038;-1.478;2023-05-25T00:55:37;66104.94;;;13.17;100.00
44675;BME280;30388;52.038;-1.478;2023-05-25T00:58:07;66162.56;;;13.89;100.00
44675;BME280;30388;52.038;-1.478;2023-05-25T01:00:36;66192.83;;;13.83;100.00
44675;BME280;30388;52.038;-1.478;2023-05-25T01:03:13;66140.63;;;13.39;100.00
44675;BME280;30388;52.038;-1.478;2023-05-25T01:05:41;66206.20;;;14.44;100.00
44675;BME280;30388;52.038;-1.478;2023-05-25T01:08:16;66184.24;;;13.72;100.00
44675;BME280;30388;52.038;-1.478;2023-05-25T01:10:48;66144.37;;;13.43;100.00
44675;BME280;30388;52.038;-1.478;2023-05-25T01:13:18;66165.83;;;13.71;100.00
44675;BME280;30388;52.038;-1.478;2023-05-25T01:15:47;66242.82;;;14.68;100.00
44675;BME280;30388;52.038;-1.478;2023-05-25T01:18:16;66175.38;;;13.83;100.00
44675;BME280;30388;52.038;-1.478;2023-05-25T01:20:52;66217.38;;;14.12;100.00
44675;BME280;30388;52.038;-1.478;2023-05-25T01:23:27;66227.37;;;14.48;100.00
44675;BME280;30388;52.038;-1.478;2023-05-25T01:25:58;66254.80;;;14.82;100.00
44675;BME280;30388;52.038;-1.478;2023-05-25T01:28:31;66214.00;;;14.09;100.00
44675;BME280;30388;52.038;-1.478;2023-05-25T01:31:04;66190.88;;;14.25;100.00
44675;BME280;30388;52.038;-1.478;2023-05-25T01:33:33;66221.54;;;14.19;100.00
44675;BME280;30388;52.038;-1.478;2023-05-25T01:36:03;66206.23;;;14.22;100.00
44675;BME280;30388;52.038;-1.478;2023-05-25T01:38:32;66268.67;;;14.79;100.00
44675;BME280;30388;52.038;-1.478;2023-05-25T01:40:59;66261.07;;;14.69;100.00
44675;BME280;30388;52.038;-1.478;2023-05-25T01:43:26;66271.79;;;14.83;100.00
44675;BME280;30388;52.038;-1.478;2023-05-25T01:46:00;66215.55;;;14.11;100.00
44675;BME280;30388;52.038;-1.478;2023-05-25T01:48:44;66187.88;;;13.99;100.00
44675;BME280;30388;52.038;-1.478;2023-05-25T01:51:29;66171.02;;;14.00;100.00
44675;BME280;30388;52.038;-1.478;2023-05-25T01:54:05;66106.44;;;12.97;100.00
44675;BME280;30388;52.038;-1.478;2023-05-25T01:56:35;66085.98;;;12.93;100.00
44675;BME280;30388;52.038;-1.478;2023-05-25T01:59:03;66161.98;;;13.88;100.00
44675;BME280;30388;52.038;-1.478;2023-05-25T02:01:35;66163.97;;;13.90;100.00
44675;BME280;30388;52.038;-1.478;2023-05-25T02:04:03;66116.82;;;13.09;100.00
44675;BME280;30388;52.038;-1.478;2023-05-25T02:06:30;66138.02;;;13.36;100.00
44675;BME280;30388;52.038;-1.478;2023-05-25T02:08:59;66099.84;;;13.10;100.00
44675;BME280;30388;52.038;-1.478;2023-05-25T02:11:25;66108.11;;;12.98;100.00
44675;BME280;30388;52.038;-1.478;2023-05-25T02:13:53;66117.63;;;13.32;100.00
44675;BME280;30388;52.038;-1.478;2023-05-25T02:16:20;66115.61;;;13.29;100.00
44675;BME280;30388;52.038;-1.478;2023-05-25T02:18:48;66050.34;;;12.47;100.00
44675;BME280;30388;52.038;-1.478;2023-05-25T02:21:16;66064.57;;;12.65;100.00
44675;BME280;30388;52.038;-1.478;2023-05-25T02:23:43;66048.06;;;12.44;100.00
44675;BME280;30388;52.038;-1.478;2023-05-25T02:26:12;66079.05;;;13.10;100.00
44675;BME280;30388;52.038;-1.478;2023-05-25T02:28:39;66067.76;;;12.95;100.00
44675;BME280;30388;52.038;-1.478;2023-05-25T02:31:06;66092.47;;;13.01;100.00
44675;BME280;30388;52.038;-1.478;2023-05-25T02:33:33;66121.71;;;13.38;100.00
44675;BME280;30388;52.038;-1.478;2023-05-25T02:36:01;66166.97;;;13.72;100.00
44675;BME280;30388;52.038;-1.478;2023-05-25T02:38:30;66187.19;;;13.98;100.00
44675;BME280;30388;52.038;-1.478;2023-05-25T02:40:57;66174.09;;;13.81;100.00
44675;BME280;30388;52.038;-1.478;2023-05-25T02:43:24;66224.80;;;14.23;100.00
44675;BME280;30388;52.038;-1.478;2023-05-25T02:45:52;66215.17;;;14.10;100.00
44675;BME280;30388;52.038;-1.478;2023-05-25T02:48:19;66195.82;;;13.86;100.00
44675;BME280;30388;52.038;-1.478;2023-05-25T02:50:49;66184.06;;;13.71;100.00
44675;BME280;30388;52.038;-1.478;2023-05-25T02:53:16;66234.94;;;14.36;100.00
44675;BME280;30388;52.038;-1.478;2023-05-25T02:55:43;66226.37;;;14.47;100.00
44675;BME280;30388;52.038;-1.478;2023-05-25T02:58:11;66164.89;;;13.70;100.00
44675;BME280;30388;52.038;-1.478;2023-05-25T03:00:38;66206.88;;;14.23;100.00
44675;BME280;30388;52.038;-1.478;2023-05-25T03:03:06;66159.47;;;13.40;100.00
44675;BME280;30388;52.038;-1.478;2023-05-25T03:05:33;66147.55;;;13.70;100.00
44675;BME280;30388;52.038;-1.478;2023-05-25T03:08:01;66159.34;;;13.84;100.00
44675;BME280;30388;52.038;-1.478;2023-05-25T03:10:28;66121.06;;;13.37;100.00
44675;BME280;30388;52.038;-1.478;2023-05-25T03:12:56;66044.72;;;12.41;100.00
44675;BME280;30388;52.038;-1.478;2023-05-25T03:15:24;66044.05;;;12.66;100.00
44675;BME280;30388;52.038;-1.478;2023-05-25T03:17:53;66030.83;;;12.23;100.00
44675;BME280;30388;52.038;-1.478;2023-05-25T03:20:20;66077.47;;;12.82;100.00
44675;BME280;30388;52.038;-1.478;2023-05-25T03:22:48;66164.78;;;13.92;100.00
44675;BME280;30388;52.038;-1.478;2023-05-25T03:25:16;66168.05;;;13.96;100.00
44675;BME280;30388;52.038;-1.478;2023-05-25T03:27:44;66196.99;;;14.10;100.00
44675;BME280;30388;52.038;-1.478;2023-05-25T03:30:13;66203.74;;;13.97;100.00
44675;BME280;30388;52.038;-1.478;2023-05-25T03:32:40;66174.02;;;14.04;100.00
44675;BME280;30388;52.038;-1.478;2023-05-25T03:35:09;66208.11;;;14.02;100.00
44675;BME280;30388;52.038;-1.478;2023-05-25T03:37:36;66209.66;;;14.04;100.00
44675;BME280;30388;52.038;-1.478;2023-05-25T03:40:03;66297.42;;;15.15;100.00
44675;BME280;30388;52.038;-1.478;2023-05-25T03:42:31;66291.36;;;15.06;100.00
44675;BME280;30388;52.038;-1.478;2023-05-25T03:44:59;66297.60;;;14.66;100.00
44675;BME280;30388;52.038;-1.478;2023-05-25T03:47:27;66313.24;;;14.86;100.00
44675;BME280;30388;52.038;-1.478;2023-05-25T03:49:54;66316.83;;;15.39;100.00
44675;BME280;30388;52.038;-1.478;2023-05-25T03:52:22;66325.98;;;15.50;100.00
44675;BME280;30388;52.038;-1.478;2023-05-25T03:54:49;66327.76;;;15.53;100.00
44675;BME280;30388;52.038;-1.478;2023-05-25T03:57:17;66300.68;;;14.92;100.00
44675;BME280;30388;52.038;-1.478;2023-05-25T03:59:44;66250.34;;;14.07;100.00
44675;BME280;30388;52.038;-1.478;2023-05-25T04:02:12;66204.79;;;13.97;100.00
44675;BME280;30388;52.038;-1.478;2023-05-25T04:04:39;66183.97;;;14.16;100.00
44675;BME280;30388;52.038;-1.478;2023-05-25T04:07:06;66153.30;;;13.55;100.00
44675;BME280;30388;52.038;-1.478;2023-05-25T04:09:34;66163.20;;;13.46;100.00
44675;BME280;30388;52.038;-1.478;2023-05-25T04:12:02;66203.93;;;13.96;100.00
44675;BME280;30388;52.038;-1.478;2023-05-25T04:14:30;66214.70;;;14.11;100.00
44675;BME280;30388;52.038;-1.478;2023-05-25T04:16:59;66213.18;;;14.30;100.00
44675;BME280;30388;52.038;-1.478;2023-05-25T04:19:26;66214.10;;;14.10;100.00
44675;BME280;30388;52.038;-1.478;2023-05-25T04:21:53;66212.72;;;14.09;100.00
44675;BME280;30388;52.038;-1.478;2023-05-25T04:24:22;66195.18;;;13.59;100.00
44675;BME280;30388;52.038;-1.478;2023-05-25T04:26:50;66201.18;;;13.94;100.00
44675;BME280;30388;52.038;-1.478;2023-05-25T04:29:18;66260.22;;;14.68;100.00
44675;BME280;30388;52.038;-1.478;2023-05-25T04:31:46;66213.46;;;14.10;100.00
44675;BME280;30388;52.038;-1.478;2023-05-25T04:34:13;66183.01;;;13.93;100.00
44675;BME280;30388;52.038;-1.478;2023-05-25T04:36:41;66187.91;;;13.99;100.00
44675;BME280;30388;52.038;-1.478;2023-05-25T04:39:09;66210.45;;;14.05;100.00
44675;BME280;30388;52.038;-1.478;2023-05-25T04:41:36;66260.94;;;14.69;100.00
44675;BME280;30388;52.038;-1.478;2023-05-25T04:44:04;66202.53;;;13.95;100.00
44675;BME280;30388;52.038;-1.478;2023-05-25T04:46:32;66174.13;;;14.04;100.00
44675;BME280;30388;52.038;-1.478;2023-05-25T04:49:00;66172.74;;;13.58;100.00
44675;BME280;30388;52.038;-1.478;2023-05-25T04:51:27;66238.62;;;14.41;100.00
44675;BME280;30388;52.038;-1.478;2023-05-25T04:53:54;66237.80;;;14.40;100.00
44675;BME280;30388;52.038;-1.478;2023-05-25T04:56:22;66209.15;;;14.26;100.00
44675;BME280;30388;52.038;-1.478;2023-05-25T04:58:49;66181.63;;;13.91;100.00
44675;BME280;30388;52.038;-1.478;2023-05-25T05:01:16;66242.29;;;14.46;100.00
44675;BME280;30388;52.038;-1.478;2023-05-25T05:03:45;66231.76;;;14.32;100.00
44675;BME280;30388;52.038;-1.478;2023-05-25T05:06:12;66230.71;;;14.31;100.00
44675;BME280;30388;52.038;-1.478;2023-05-25T05:08:39;66258.13;;;14.65;100.00
44675;BME280;30388;52.038;-1.478;2023-05-25T05:11:08;66098.65;;;12.84;100.00
44675;BME280;30388;52.038;-1.478;2023-05-25T05:13:37;66055.97;;;12.55;100.00
44675;BME280;30388;52.038;-1.478;2023-05-25T05:16:05;66068.56;;;12.71;100.00
44675;BME280;30388;52.038;-1.478;2023-05-25T05:18:33;66058.17;;;12.58;100.00
44675;BME280;30388;52.038;-1.478;2023-05-25T05:21:02;66113.72;;;13.28;100.00
44675;BME280;30388;52.038;-1.478;2023-05-25T05:23:31;66168.34;;;13.74;100.00
44675;BME280;30388;52.038;-1.478;2023-05-25T05:25:58;66165.05;;;13.71;100.00
44675;BME280;30388;52.038;-1.478;2023-05-25T05:28:25;66257.82;;;14.65;100.00
44675;BME280;30388;52.038;-1.478;2023-05-25T05:30:53;66243.39;;;14.20;100.00
44675;BME280;30388;52.038;-1.478;2023-05-25T05:33:20;66328.46;;;15.28;100.00
44675;BME280;30388;52.038;-1.478;2023-05-25T05:35:47;66355.56;;;15.40;100.00
44675;BME280;30388;52.038;-1.478;2023-05-25T05:38:16;66347.01;;;15.78;100.00
44675;BME280;30388;52.038;-1.478;2023-05-25T05:40:43;66326.88;;;15.03;100.00
44675;BME280;30388;52.038;-1.478;2023-05-25T05:43:12;66266.85;;;14.50;100.00
44675;BME280;30388;52.038;-1.478;2023-05-25T05:45:39;66325.36;;;15.01;100.00
44675;BME280;30388;52.038;-1.478;2023-05-25T05:48:07;66316.71;;;14.89;100.00
44675;BME280;30388;52.038;-1.478;2023-05-25T05:50:34;66354.26;;;15.37;100.00
44675;BME280;30388;52.038;-1.478;2023-05-25T05:53:01;66337.72;;;15.17;100.00
44675;BME280;30388;52.038;-1.478;2023-05-25T05:55:31;66389.80;;;15.82;100.00
44675;BME280;30388;52.038;-1.478;2023-05-25T05:57:59;66404.83;;;16.01;100.00
44675;BME280;30388;52.038;-1.478;2023-05-25T06:00:26;66372.01;;;15.60;100.00
44675;BME280;30388;52.038;-1.478;2023-05-25T06:02:54;66428.65;;;16.31;100.00
44675;BME280;30388;52.038;-1.478;2023-05-25T06:05:22;66418.27;;;16.17;100.00
44675;BME280;30388;52.038;-1.478;2023-05-25T06:07:49;66421.65;;;15.95;100.00
44675;BME280;30388;52.038;-1.478;2023-05-25T06:10:19;66416.93;;;16.16;100.00
44675;BME280;30388;52.038;-1.478;2023-05-25T06:12:46;66424.69;;;16.26;100.00
44675;BME280;30388;52.038;-1.478;2023-05-25T06:15:13;66454.09;;;16.63;100.00
44675;BME280;30388;52.038;-1.478;2023-05-25T06:17:41;66484.88;;;17.02;100.00
44675;BME280;30388;52.038;-1.478;2023-05-25T06:20:10;66418.37;;;16.18;100.00
44675;BME280;30388;52.038;-1.478;2023-05-25T06:22:37;66476.79;;;16.65;100.00
44675;BME280;30388;52.038;-1.478;2023-05-25T06:25:06;66468.07;;;16.54;100.00
44675;BME280;30388;52.038;-1.478;2023-05-25T06:27:35;66457.23;;;16.40;100.00
44675;BME280;30388;52.038;-1.478;2023-05-25T06:30:04;66484.26;;;16.52;100.00
44675;BME280;30388;52.038;-1.478;2023-05-25T06:32:31;66474.89;;;16.89;100.00
44675;BME280;30388;52.038;-1.478;2023-05-25T06:35:00;66516.50;;;17.15;100.00
44675;BME280;30388;52.038;-1.478;2023-05-25T06:37:31;66493.71;;;16.64;100.00
44675;BME280;30388;52.038;-1.478;2023-05-25T06:40:00;66463.18;;;16.74;100.00
44675;BME280;30388;52.038;-1.478;2023-05-25T06:42:27;66489.22;;;16.81;100.00
44675;BME280;30388;52.038;-1.478;2023-05-25T06:44:55;66423.14;;;15.75;100.00
44675;BME280;30388;52.038;-1.478;2023-05-25T06:47:22;66505.15;;;17.00;100.00
44675;BME280;30388;52.038;-1.478;2023-05-25T06:49:50;66494.94;;;16.43;100.00
44675;BME280;30388;52.038;-1.478;2023-05-25T06:52:17;66519.95;;;16.97;100.00
44675;BME280;30388;52.038;-1.478;2023-05-25T06:54:44;66588.40;;;17.82;100.00
44675;BME280;30388;52.038;-1.478;2023-05-25T06:57:13;66609.54;;;17.61;100.00
44675;BME280;30388;52.038;-1.478;2023-05-25T06:59:39;66572.53;;;17.41;100.00
44675;BME280;30388;52.038;-1.478;2023-05-25T07:02:07;66624.48;;;17.79;100.00
44675;BME280;30388;52.038;-1.478;2023-05-25T07:04:35;66598.60;;;17.47;100.00
44675;BME280;30388;52.038;-1.478;2023-05-25T07:07:02;66615.38;;;18.17;100.00
44675;BME280;30388;52.038;-1.478;2023-05-25T07:09:30;66616.67;;;17.70;100.00
44675;BME280;30388;52.038;-1.478;2023-05-25T07:11:59;66643.74;;;18.03;100.00
44675;BME280;30388;52.038;-1.478;2023-05-25T07:14:28;66673.04;;;18.18;100.00
44675;BME280;30388;52.038;-1.478;2023-05-25T07:16:55;66705.10;;;18.80;100.00
44675;BME280;30388;52.038;-1.478;2023-05-25T07:19:22;66738.31;;;18.99;100.00
44675;BME280;30388;52.038;-1.478;2023-05-25T07:21:49;66688.84;;;18.11;100.00
44675;BME280;30388;52.038;-1.478;2023-05-25T07:24:17;66645.39;;;18.05;100.00
44675;BME280;30388;52.038;-1.478;2023-05-25T07:26:44;66691.96;;;18.42;100.00
44675;BME280;30388;52.038;-1.478;2023-05-25T07:29:12;66641.56;;;18.00;100.00
44675;BME280;30388;52.038;-1.478;2023-05-25T07:31:39;66681.32;;;18.50;100.00
44675;BME280;30388;52.038;-1.478;2023-05-25T07:34:07;66739.21;;;19.23;100.00
44675;BME280;30388;52.038;-1.478;2023-05-25T07:36:34;66787.22;;;19.35;100.00
44675;BME280;30388;52.038;-1.478;2023-05-25T07:39:04;66812.47;;;19.66;100.00
44675;BME280;30388;52.038;-1.478;2023-05-25T07:41:31;66871.50;;;20.17;100.00
44675;BME280;30388;52.038;-1.478;2023-05-25T07:43:58;66888.43;;;20.17;100.00
44675;BME280;30388;52.038;-1.478;2023-05-25T07:46:28;66787.25;;;19.13;100.00
44675;BME280;30388;52.038;-1.478;2023-05-25T07:48:56;66895.71;;;20.48;100.00
44675;BME280;30388;52.038;-1.478;2023-05-25T07:51:25;66860.19;;;20.25;100.00
44675;BME280;30388;52.038;-1.478;2023-05-25T07:53:52;66856.71;;;19.99;100.00
44675;BME280;30388;52.038;-1.478;2023-05-25T07:56:20;66803.96;;;19.32;100.00
44675;BME280;30388;52.038;-1.478;2023-05-25T07:58:48;66767.99;;;19.38;100.00
44675;BME280;30388;52.038;-1.478;2023-05-25T08:01:15;66721.88;;;18.79;100.00
44675;BME280;30388;52.038;-1.478;2023-05-25T08:03:43;66708.20;;;18.35;100.00
44675;BME280;30388;52.038;-1.478;2023-05-25T08:06:11;66758.89;;;18.99;100.00
44675;BME280;30388;52.038;-1.478;2023-05-25T08:08:38;66749.20;;;18.87;100.00
44675;BME280;30388;52.038;-1.478;2023-05-25T08:11:05;66753.84;;;19.19;100.00
44675;BME280;30388;52.038;-1.478;2023-05-25T08:13:32;66702.04;;;18.54;100.00
44675;BME280;30388;52.038;-1.478;2023-05-25T08:15:59;66603.51;;;17.80;100.00
44675;BME280;30388;52.038;-1.478;2023-05-25T08:18:26;66699.96;;;18.25;100.00
44675;BME280;30388;52.038;-1.478;2023-05-25T08:20:53;66761.66;;;19.29;100.00
44675;BME280;30388;52.038;-1.478;2023-05-25T08:23:22;66730.40;;;18.90;100.00
44675;BME280;30388;52.038;-1.478;2023-05-25T08:25:50;66789.45;;;19.37;100.00
44675;BME280;30388;52.038;-1.478;2023-05-25T08:28:17;66754.88;;;19.20;100.00
44675;BME280;30388;52.038;-1.478;2023-05-25T08:30:45;66675.57;;;18.43;100.00
44675;BME280;30388;52.038;-1.478;2023-05-25T08:33:12;66691.36;;;18.64;100.00
44675;BME280;30388;52.038;-1.478;2023-05-25T08:35:39;66744.75;;;19.08;100.00
44675;BME280;30388;52.038;-1.478;2023-05-25T08:38:06;66697.14;;;18.70;100.00
44675;BME280;30388;52.038;-1.478;2023-05-25T08:40:34;66707.28;;;18.82;100.00
44675;BME280;30388;52.038;-1.478;2023-05-25T08:43:02;66696.65;;;18.70;100.00
44675;BME280;30388;52.038;-1.478;2023-05-25T08:45:29;66717.17;;;18.96;100.00
44675;BME280;30388;52.038;-1.478;2023-05-25T08:47:58;66760.95;;;19.50;100.00
44675;BME280;30388;52.038;-1.478;2023-05-25T08:50:29;66808.93;;;19.88;100.00
44675;BME280;30388;52.038;-1.478;2023-05-25T08:52:56;66862.06;;;20.77;100.00
44675;BME280;30388;52.038;-1.478;2023-05-25T08:55:34;66810.63;;;19.64;100.00
44675;BME280;30388;52.038;-1.478;2023-05-25T08:58:09;66852.42;;;20.16;100.00
44675;BME280;30388;52.038;-1.478;2023-05-25T09:00:46;66810.63;;;19.91;100.00
44675;BME280;30388;52.038;-1.478;2023-05-25T09:03:15;66846.98;;;20.09;100.00
44675;BME280;30388;52.038;-1.478;2023-05-25T09:05:43;66833.09;;;19.70;100.00
44675;BME280;30388;52.038;-1.478;2023-05-25T09:08:11;66828.52;;;19.86;100.00
44675;BME280;30388;52.038;-1.478;2023-05-25T09:10:39;66886.26;;;20.59;100.00
44675;BME280;30388;52.038;-1.478;2023-05-25T09:13:09;66861.83;;;19.83;100.00
44675;BME280;30388;52.038;-1.478;2023-05-25T09:15:38;66879.06;;;20.50;100.00
44675;BME280;30388;52.038;-1.478;2023-05-25T09:18:07;66816.18;;;19.71;100.00
44675;BME280;30388;52.038;-1.478;2023-05-25T09:20:34;66824.70;;;19.82;100.00
44675;BME280;30388;52.038;-1.478;2023-05-25T09:23:02;66903.12;;;20.36;100.00
44675;BME280;30388;52.038;-1.478;2023-05-25T09:25:30;66926.68;;;20.88;100.00
44675;BME280;30388;52.038;-1.478;2023-05-25T09:27:59;66848.49;;;20.11;100.00
44675;BME280;30388;52.038;-1.478;2023-05-25T09:30:26;66838.16;;;19.98;100.00
44675;BME280;30388;52.038;-1.478;2023-05-25T09:32:53;66831.76;;;19.90;100.00
44675;BME280;30388;52.038;-1.478;2023-05-25T09:35:20;66712.46;;;18.40;100.00
44675;BME280;30388;52.038;-1.478;2023-05-25T09:37:47;66843.64;;;20.05;100.00
44675;BME280;30388;52.038;-1.478;2023-05-25T09:40:15;66817.93;;;19.28;100.00
44675;BME280;30388;52.038;-1.478;2023-05-25T09:42:44;66815.53;;;19.70;100.00
44675;BME280;30388;52.038;-1.478;2023-05-25T09:45:13;66834.28;;;19.94;100.00
44675;BME280;30388;52.038;-1.478;2023-05-25T09:47:40;66888.08;;;20.39;100.00
44675;BME280;30388;52.038;-1.478;2023-05-25T09:50:10;66909.75;;;20.44;100.00
44675;BME280;30388;52.038;-1.478;2023-05-25T09:52:38;66879.64;;;20.06;100.00
44675;BME280;30388;52.038;-1.478;2023-05-25T09:55:08;66995.06;;;21.51;100.00
44675;BME280;30388;52.038;-1.478;2023-05-25T09:57:36;66943.40;;;20.59;100.00
44675;BME280;30388;52.038;-1.478;2023-05-25T10:00:03;67010.11;;;21.42;100.00
44675;BME280;30388;52.038;-1.478;2023-05-25T10:02:31;67060.59;;;21.83;100.00
44675;BME280;30388;52.038;-1.478;2023-05-25T10:04:59;67024.76;;;21.61;100.00
44675;BME280;30388;52.038;-1.478;2023-05-25T10:07:27;67028.26;;;21.43;100.00
44675;BME280;30388;52.038;-1.478;2023-05-25T10:10:01;66948.85;;;20.66;100.00
44675;BME280;30388;52.038;-1.478;2023-05-25T10:12:32;66932.12;;;20.72;100.00
44675;BME280;30388;52.038;-1.478;2023-05-25T10:15:02;66950.63;;;20.68;100.00
44675;BME280;30388;52.038;-1.478;2023-05-25T10:17:31;66913.61;;;20.48;100.00
44675;BME280;30388;52.038;-1.478;2023-05-25T10:20:03;66883.59;;;20.11;100.00
44675;BME280;30388;52.038;-1.478;2023-05-25T10:22:39;66863.44;;;19.85;100.00
44675;BME280;30388;52.038;-1.478;2023-05-25T10:25:09;66915.17;;;20.50;100.00
44675;BME280;30388;52.038;-1.478;2023-05-25T10:27:41;66986.73;;;21.13;100.00
44675;BME280;30388;52.038;-1.478;2023-05-25T10:30:13;66934.66;;;20.74;100.00
44675;BME280;30388;52.038;-1.478;2023-05-25T10:32:41;66864.64;;;20.31;100.00
44675;BME280;30388;52.038;-1.478;2023-05-25T10:35:10;66889.52;;;20.40;100.00
44675;BME280;30388;52.038;-1.478;2023-05-25T10:37:39;66906.69;;;20.40;100.00
44675;BME280;30388;52.038;-1.478;2023-05-25T10:40:08;66861.19;;;20.27;100.00
44675;BME280;30388;52.038;-1.478;2023-05-25T10:42:37;66891.81;;;20.21;100.00
44675;BME280;30388;52.038;-1.478;2023-05-25T10:45:07;66926.92;;;21.09;100.00
44675;BME280;30388;52.038;-1.478;2023-05-25T10:47:36;66878.21;;;20.48;100.00
44675;BME280;30388;52.038;-1.478;2023-05-25T10:50:05;66842.76;;;20.04;100.00
44675;BME280;30388;52.038;-1.478;2023-05-25T10:52:33;66850.38;;;20.14;100.00
44675;BME280;30388;52.038;-1.478;2023-05-25T10:55:02;66885.43;;;20.13;100.00
44675;BME280;30388;52.038;-1.478;2023-05-25T10:57:29;66953.67;;;21.42;100.00
44675;BME280;30388;52.038;-1.478;2023-05-25T11:00:02;66967.97;;;21.15;100.00
44675;BME280;30388;52.038;-1.478;2023-05-25T11:02:48;67015.48;;;21.49;100.00
44675;BME280;30388;52.038;-1.478;2023-05-25T11:05:35;66987.12;;;21.39;100.00
44675;BME280;30388;52.038;-1.478;2023-05-25T11:08:06;66971.51;;;20.94;100.00
44675;BME280;30388;52.038;-1.478;2023-05-25T11:11:06;66971.64;;;21.21;100.00
44675;BME280;30388;52.038;-1.478;2023-05-25T11:13:35;67033.62;;;21.71;100.00
44675;BME280;30388;52.038;-1.478;2023-05-25T11:16:21;67077.48;;;22.04;100.00
44675;BME280;30388;52.038;-1.478;2023-05-25T11:18:52;66986.52;;;21.12;100.00
44675;BME280;30388;52.038;-1.478;2023-05-25T11:21:24;67020.12;;;21.81;100.00
44675;BME280;30388;52.038;-1.478;2023-05-25T11:24:13;67030.33;;;21.94;100.00
44675;BME280;30388;52.038;-1.478;2023-05-25T11:26:58;66988.25;;;21.41;100.00
44675;BME280;30388;52.038;-1.478;2023-05-25T11:29:30;66967.52;;;21.16;100.00
44675;BME280;30388;52.038;-1.478;2023-05-25T11:31:58;66983.96;;;21.35;100.00
44675;BME280;30388;52.038;-1.478;2023-05-25T11:34:25;66976.65;;;21.26;100.00
44675;BME280;30388;52.038;-1.478;2023-05-25T11:36:55;66974.90;;;21.25;100.00
44675;BME280;30388;52.038;-1.478;2023-05-25T11:39:23;67015.33;;;21.76;100.00
44675;BME280;30388;52.038;-1.478;2023-05-25T11:41:53;67039.24;;;22.05;100.00
44675;BME280;30388;52.038;-1.478;2023-05-25T11:44:25;67089.63;;;22.42;100.00
44675;BME280;30388;52.038;-1.478;2023-05-25T11:46:53;67064.03;;;21.87;100.00
44675;BME280;30388;52.038;-1.478;2023-05-25T11:49:21;67016.98;;;21.52;100.00
44675;BME280;30388;52.038;-1.478;2023-05-25T11:51:48;67028.94;;;21.92;100.00
44675;BME280;30388;52.038;-1.478;2023-05-25T11:54:25;66906.18;;;20.12;100.00
44675;BME280;30388;52.038;-1.478;2023-05-25T11:56:55;66939.17;;;20.81;100.00
44675;BME280;30388;52.038;-1.478;2023-05-25T11:59:25;66901.59;;;20.54;100.00
44675;BME280;30388;52.038;-1.478;2023-05-25T12:01:57;67031.28;;;21.96;100.00
44675;BME280;30388;52.038;-1.478;2023-05-25T12:04:25;67008.72;;;21.67;100.00
44675;BME280;30388;52.038;-1.478;2023-05-25T12:07:02;67030.47;;;21.68;100.00
44675;BME280;30388;52.038;-1.478;2023-05-25T12:09:31;67125.45;;;22.64;100.00
44675;BME280;30388;52.038;-1.478;2023-05-25T12:11:58;67081.95;;;22.10;100.00
44675;BME280;30388;52.038;-1.478;2023-05-25T12:14:26;67096.72;;;22.50;100.00
44675;BME280;30388;52.038;-1.478;2023-05-25T12:16:54;67105.85;;;22.62;100.00
44675;BME280;30388;52.038;-1.478;2023-05-25T12:19:22;67074.56;;;22.00;100.00
44675;BME280;30388;52.038;-1.478;2023-05-25T12:21:51;66943.88;;;20.59;100.00
44675;BME280;30388;52.038;-1.478;2023-05-25T12:24:18;67086.06;;;22.37;100.00
44675;BME280;30388;52.038;-1.478;2023-05-25T12:26:47;66987.02;;;21.14;100.00
44675;BME280;30388;52.038;-1.478;2023-05-25T12:29:16;66873.07;;;19.98;100.00
44675;BME280;30388;52.038;-1.478;2023-05-25T12:31:43;66932.67;;;20.72;100.00
44675;BME280;30388;52.038;-1.478;2023-05-25T12:34:12;66759.59;;;19.25;100.00
44675;BME280;30388;52.038;-1.478;2023-05-25T12:36:43;66934.34;;;20.74;100.00
44675;BME280;30388;52.038;-1.478;2023-05-25T12:39:12;66925.20;;;20.62;100.00
44675;BME280;30388;52.038;-1.478;2023-05-25T12:41:46;66952.22;;;20.96;100.00
44675;BME280;30388;52.038;-1.478;2023-05-25T12:44:22;67002.71;;;21.33;100.00
44675;BME280;30388;52.038;-1.478;2023-05-25T12:46:52;66884.47;;;20.33;100.00
44675;BME280;30388;52.038;-1.478;2023-05-25T12:49:28;66930.55;;;20.92;100.00